Flight Track Log - Related Links

Times and Time Zones

All times are in EST time to prevent confusion due to time zone crossing. See the CSC8825 flight status page for this flight to view local times or setup timezone preferences in your user account.


Time Position Orientation Groundspeed Altitude Reporting Facility
EST Latitude Longitude Course Direction KTS MPH feet Rate Location/Type
Sat 10:26:00 PM 28.7652 121.0614 12° North  Level Estimated
Sat 10:27:00 PM 28.8718 121.0878 12° North  Level Estimated
Sat 10:28:00 PM 28.9784 121.1143 12° North  Level Estimated
Sat 10:29:00 PM 29.0850 121.1408 12° North  Level Estimated
Sat 10:30:00 PM 29.1855 121.1659 12° North  Level Estimated
Sat 10:31:00 PM 29.2861 121.1911 12° North  Level Estimated
Sat 10:32:00 PM 29.3866 121.2162 12° North  Level Estimated
Sat 10:33:00 PM 29.4872 121.2415 12° North  Level Estimated
Sat 10:34:00 PM 29.5877 121.2667 12° North  Level Estimated
Sat 10:35:00 PM 29.6883 121.2921 12° North  Level Estimated
Sat 10:36:00 PM 29.7888 121.3175 12° North  Level Estimated
Sat 10:37:00 PM 29.8893 121.3429 12° North  Level Estimated
Sat 10:38:00 PM 29.9898 121.3684 12° North  Level Estimated
Sat 10:39:00 PM 30.0904 121.3939 12° North  Level Estimated
Sat 10:40:00 PM 30.1909 121.4195 12° North  Level Estimated
Sat 10:41:00 PM 30.2914 121.4452 12° North  Level Estimated
Sat 10:42:00 PM 30.3919 121.4709 12° North  Level Estimated
Sat 10:43:00 PM 30.4924 121.4966 12° North  Level Estimated
Sat 10:44:00 PM 30.5929 121.5224 12° North  Level Estimated
Sat 10:45:00 PM 30.6934 121.5483 12° North  Level Estimated
Sat 10:46:00 PM 30.7938 121.5742 12° North  Level Estimated
Sat 10:47:00 PM 30.8943 121.6001 13° North  Level Estimated
Sat 10:48:00 PM 30.9948 121.6262 13° North  Level Estimated
Sat 10:49:00 PM 31.0953 121.6522 13° North  Level Estimated
Sat 10:50:00 PM 31.1957 121.6784 13° North  Level Estimated
Sat 10:51:00 PM 31.2962 121.7045 13° North  Level Estimated
Sat 10:52:00 PM 31.3966 121.7308 13° North  Level Estimated
Sat 10:53:00 PM 31.4971 121.7571 13° North  Level Estimated
Sat 10:54:00 PM 31.5975 121.7834 13° North  Level Estimated
Sat 10:55:00 PM 31.6979 121.8098 13° North  Level Estimated
Sat 10:56:00 PM 31.7984 121.8363 13° North  Level Estimated
Sat 10:57:00 PM 31.8988 121.8628 13° North  Level Estimated
Sat 10:58:00 PM 31.9992 121.8894 13° North  Level Estimated
Sat 10:59:00 PM 32.0996 121.9160 13° North  Level Estimated
Sat 11:00:00 PM 32.2000 121.9427 13° North  Level Estimated
Sat 11:01:00 PM 32.3004 121.9695 13° North  Level Estimated
Sat 11:02:00 PM 32.4008 121.9963 13° North  Level Estimated
Sat 11:03:00 PM 32.5012 122.0232 13° North  Level Estimated
Sat 11:04:00 PM 32.6016 122.0501 13° North  Level Estimated
Sat 11:05:00 PM 32.7020 122.0771 13° North  Level Estimated
Sat 11:06:00 PM 32.8023 122.1042 13° North  Level Estimated
Sat 11:07:00 PM 32.9027 122.1313 13° North  Level Estimated
Sat 11:08:00 PM 33.0031 122.1585 13° North  Level Estimated
Sat 11:09:00 PM 33.1034 122.1857 13° North  Level Estimated
Sat 11:10:00 PM 33.2038 122.2130 13° North  Level Estimated
Sat 11:11:00 PM 33.3041 122.2404 13° North  Level Estimated
Sat 11:12:00 PM 33.4044 122.2678 13° North  Level Estimated
Sat 11:13:00 PM 33.5048 122.2953 13° North  Level Estimated
Sat 11:14:00 PM 33.6051 122.3229 13° North  Level Estimated
Sat 11:15:00 PM 33.7054 122.3505 13° North  Level Estimated
Sat 11:16:00 PM 33.8057 122.3782 13° North  Level Estimated
Sat 11:17:00 PM 33.9060 122.4060 13° North  Level Estimated
Sat 11:18:00 PM 34.0063 122.4338 13° North  Level Estimated
Sat 11:19:00 PM 34.1066 122.4616 13° North  Level Estimated
Sat 11:20:00 PM 34.2069 122.4896 13° North  Level Estimated
Sat 11:21:00 PM 34.3072 122.5176 13° North  Level Estimated
Sat 11:22:00 PM 34.4075 122.5457 13° North  Level Estimated
Sat 11:23:00 PM 34.5077 122.5739 13° North  Level Estimated
Sat 11:24:00 PM 34.6080 122.6021 13° North  Level Estimated
Sat 11:25:00 PM 34.7082 122.6304 13° North  Level Estimated
Sat 11:26:00 PM 34.8085 122.6587 13° North  Level Estimated
Sat 11:27:00 PM 34.9087 122.6871 13° North  Level Estimated
Sat 11:28:00 PM 35.0090 122.7156 13° North  Level Estimated
Sat 11:29:00 PM 35.1092 122.7442 13° North  Level Estimated
Sat 11:30:00 PM 35.2094 122.7728 13° North  Level Estimated
Sat 11:31:00 PM 35.3096 122.8015 13° North  Level Estimated
Sat 11:32:00 PM 35.4098 122.8303 13° North  Level Estimated
Sat 11:33:00 PM 35.5100 122.8591 13° North  Level Estimated
Sat 11:34:00 PM 35.6102 122.8881 13° North  Level Estimated
Sat 11:35:00 PM 35.7104 122.9171 13° North  Level Estimated
Sat 11:36:00 PM 35.8106 122.9461 13° North  Level Estimated
Sat 11:37:00 PM 35.9108 122.9753 13° North  Level Estimated
Sat 11:38:00 PM 36.0109 123.0045 13° North  Level Estimated
Sat 11:39:00 PM 36.1111 123.0338 13° North  Level Estimated
Sat 11:40:00 PM 36.2113 123.0631 13° North  Level Estimated
Sat 11:41:00 PM 36.3114 123.0926 13° North  Level Estimated
Sat 11:42:00 PM 36.4115 123.1221 13° North  Level Estimated
Sat 11:43:00 PM 36.5117 123.1516 13° North  Level Estimated
Sat 11:44:00 PM 36.6118 123.1813 13° North  Level Estimated
Sat 11:45:00 PM 36.7119 123.2111 13° North  Level Estimated
Sat 11:46:00 PM 36.8120 123.2409 13° North  Level Estimated
Sat 11:47:00 PM 36.9121 123.2708 13° North  Level Estimated
Sat 11:48:00 PM 37.0122 123.3008 13° North  Level Estimated
Sat 11:49:00 PM 37.1123 123.3308 13° North  Level Estimated
Sat 11:50:00 PM 37.2124 123.3609 13° North  Level Estimated
Sat 11:51:00 PM 37.3124 123.3911 14° North  Level Estimated
Sat 11:52:00 PM 37.4125 123.4214 14° North  Level Estimated
Sat 11:53:00 PM 37.5126 123.4518 14° North  Level Estimated
Sat 11:54:00 PM 37.6126 123.4823 14° North  Level Estimated
Sat 11:55:00 PM 37.7126 123.5128 14° North  Level Estimated
Sat 11:56:00 PM 37.8127 123.5434 14° North  Level Estimated
Sat 11:57:00 PM 37.9127 123.5742 14° North  Level Estimated
Sat 11:58:00 PM 38.0127 123.6049 14° North  Level Estimated
Sat 11:59:00 PM 38.1127 123.6358 14° North  Level Estimated
Sun 12:00:00 AM 38.2127 123.6668 14° North  Level Estimated
Sun 12:01:00 AM 38.3127 123.6978 14° North  Level Estimated
Sun 12:02:00 AM 38.4127 123.7289 14° North  Level Estimated
Sun 12:03:00 AM 38.5127 123.7601 14° North  Level Estimated
Sun 12:04:00 AM 38.6126 123.7915 14° North  Level Estimated
Sun 12:05:00 AM 38.7126 123.8228 14° North  Level Estimated
Sun 12:06:00 AM 38.8125 123.8543 14° North  Level Estimated
Sun 12:07:00 AM 38.9125 123.8859 14° North  Level Estimated
Sun 12:08:00 AM 39.0124 123.9175 14° North  Level Estimated
Sun 12:09:00 AM 39.1123 123.9493 14° North  Level Estimated
Sun 12:10:00 AM 39.2122 123.9811 14° North  Level Estimated
Sun 12:11:00 AM 39.3122 124.0130 14° North  Level Estimated
Sun 12:12:00 AM 39.4121 124.0451 14° North  Level Estimated
Sun 12:13:00 AM 39.5120 124.0772 14° North  Level Estimated
Sun 12:14:00 AM 39.6118 124.1094 14° North  Level Estimated
Sun 12:15:00 AM 39.7117 124.1417 14° North  Level Estimated
Sun 12:16:00 AM 39.8116 124.1740 14° North  Level Estimated
Sun 12:17:00 AM 39.9114 124.2065 14° North  Level Estimated
Sun 12:18:00 AM 40.0112 124.2391 14° North  Level Estimated
Sun 12:19:00 AM 40.1111 124.2718 14° North  Level Estimated
Sun 12:20:00 AM 40.2109 124.3046 14° North  Level Estimated
Sun 12:21:00 AM 40.3107 124.3374 14° North  Level Estimated
Sun 12:22:00 AM 40.4105 124.3704 14° North  Level Estimated
Sun 12:23:00 AM 40.5103 124.4034 14° North  Level Estimated
Sun 12:24:00 AM 40.6101 124.4366 14° North  Level Estimated
Sun 12:25:00 AM 40.7099 124.4698 14° North  Level Estimated
Sun 12:26:00 AM 40.8097 124.5032 14° North  Level Estimated
Sun 12:27:00 AM 40.9095 124.5367 14° North  Level Estimated
Sun 12:28:00 AM 41.0092 124.5702 14° North  Level Estimated
Sun 12:29:00 AM 41.1089 124.6039 14° North  Level Estimated
Sun 12:30:00 AM 41.2087 124.6376 14° North  Level Estimated
Sun 12:31:00 AM 41.3084 124.6715 14° North  Level Estimated
Sun 12:32:00 AM 41.4081 124.7055 14° North  Level Estimated
Sun 12:33:00 AM 41.5078 124.7396 14° North  Level Estimated
Sun 12:34:00 AM 41.6075 124.7737 14° North  Level Estimated
Sun 12:35:00 AM 41.7072 124.8080 14° North  Level Estimated
Sun 12:36:00 AM 41.8068 124.8424 14° North  Level Estimated
Sun 12:37:00 AM 41.9065 124.8769 14° North  Level Estimated
Sun 12:38:00 AM 42.0061 124.9115 14° North  Level Estimated
Sun 12:39:00 AM 42.1058 124.9462 14° North  Level Estimated
Sun 12:40:00 AM 42.2054 124.9811 15° North  Level Estimated
Sun 12:41:00 AM 42.3050 125.0160 15° North  Level Estimated
Sun 12:42:00 AM 42.4047 125.0510 15° North  Level Estimated
Sun 12:43:00 AM 42.5042 125.0862 15° North  Level Estimated
Sun 12:44:00 AM 42.6038 125.1215 15° North  Level Estimated
Sun 12:45:00 AM 42.7034 125.1569 15° North  Level Estimated
Sun 12:46:00 AM 42.8030 125.1924 15° North  Level Estimated
Sun 12:47:00 AM 42.9025 125.2280 15° North  Level Estimated
Sun 12:48:00 AM 43.0021 125.2637 15° North  Level Estimated
Sun 12:49:00 AM 43.1016 125.2995 15° North  Level Estimated
Sun 12:50:00 AM 43.2011 125.3355 15° North  Level Estimated
Sun 12:51:00 AM 43.3006 125.3716 15° North  Level Estimated
Sun 12:52:00 AM 43.4001 125.4078 15° North  Level Estimated
Sun 12:53:00 AM 43.4996 125.4441 15° North  Level Estimated
Sun 12:54:00 AM 43.5991 125.4805 15° North  Level Estimated
Sun 12:55:00 AM 43.6986 125.5170 15° North  Level Estimated
Sun 12:56:00 AM 43.7980 125.5537 15° North  Level Estimated
Sun 12:57:00 AM 43.8974 125.5905 15° North  Level Estimated
Sun 12:58:00 AM 43.9969 125.6274 15° North  Level Estimated
Sun 12:59:00 AM 44.0963 125.6645 15° North  Level Estimated
Sun 01:00:00 AM 44.1957 125.7016 15° North  Level Estimated
Sun 01:01:00 AM 44.2951 125.7389 15° North  Level Estimated
Sun 01:02:00 AM 44.3945 125.7764 15° North  Level Estimated
Sun 01:03:00 AM 44.4938 125.8139 15° North  Level Estimated
Sun 01:04:00 AM 44.5932 125.8516 15° North  Level Estimated
Sun 01:05:00 AM 44.6925 125.8894 15° North  Level Estimated
Sun 01:06:00 AM 44.7919 125.9273 15° North  Level Estimated
Sun 01:07:00 AM 44.8912 125.9654 15° North  Level Estimated
Sun 01:08:00 AM 44.9905 126.0036 15° North  Level Estimated
Sun 01:09:00 AM 45.0898 126.0419 15° North  Level Estimated
Sun 01:10:00 AM 45.1890 126.0804 15° North  Level Estimated
Sun 01:11:00 AM 45.2883 126.1190 15° North  Level Estimated
Sun 01:12:00 AM 45.3876 126.1577 15° North  Level Estimated
Sun 01:13:00 AM 45.4868 126.1966 15° North  Level Estimated
Sun 01:14:00 AM 45.5860 126.2356 15° North  Level Estimated
Sun 01:15:00 AM 45.6234 126.2503 15° North  Level Estimated
Sun 01:16:00 AM 45.6234 126.2503 335° Northwest  Level Estimated
Sun 01:17:00 AM 45.6234 126.2503 335° Northwest  Level Estimated
Sun 01:18:00 AM 45.6234 126.2503 335° Northwest  Level Estimated
Sun 01:19:00 AM 45.6234 126.2503 335° Northwest  Level Estimated
Sun 01:20:00 AM 45.6234 126.2503 335° Northwest  Level Estimated
Sun 01:21:00 AM 45.6234 126.2503 335° Northwest  Level Estimated
Sun 01:22:00 AM 45.6234 126.2503 335° Northwest  Level Estimated
Sun 01:23:00 AM 45.6234 126.2503 335° Northwest  Level Estimated
Sun 01:24:00 AM 45.6234 126.2503 335° Northwest  Level Estimated
Sun 01:25:00 AM 45.6234 126.2503 335° Northwest  Level Estimated
Sun 01:26:00 AM 45.6234 126.2503 335° Northwest  Level Estimated
Sun 01:27:00 AM 45.6234 126.2503 335° Northwest  Level Estimated
Sun 01:28:00 AM 45.6234 126.2503 335° Northwest  Level Estimated
Sun 01:29:00 AM 45.6234 126.2503 335° Northwest  Level Estimated
Sun 01:30:00 AM 45.6234 126.2503 335° Northwest  Level Estimated
Sun 01:31:00 AM 45.6234 126.2503 335° Northwest  Level Estimated

Login

Don't have an account? Register now (free) for customized features, flight alerts, and more!